sensor_id;sensor_type;location;lat;lon;timestamp;P1;durP1;ratioP1;P2;durP2;ratioP2
78834;SDS011;68187;42.682;23.352;2023-06-10T00:00:15;11.23;;;7.35;;
78834;SDS011;68187;42.682;23.352;2023-06-10T00:02:42;8.32;;;5.40;;
78834;SDS011;68187;42.682;23.352;2023-06-10T00:05:10;10.88;;;7.35;;
78834;SDS011;68187;42.682;23.352;2023-06-10T00:07:37;8.55;;;5.63;;
78834;SDS011;68187;42.682;23.352;2023-06-10T00:10:04;9.18;;;5.90;;
78834;SDS011;68187;42.682;23.352;2023-06-10T00:12:32;10.93;;;4.75;;
78834;SDS011;68187;42.682;23.352;2023-06-10T00:15:02;10.45;;;5.85;;
78834;SDS011;68187;42.682;23.352;2023-06-10T00:17:29;9.48;;;6.47;;
78834;SDS011;68187;42.682;23.352;2023-06-10T00:19:57;10.68;;;7.28;;
78834;SDS011;68187;42.682;23.352;2023-06-10T00:22:26;8.80;;;6.65;;
78834;SDS011;68187;42.682;23.352;2023-06-10T00:24:57;9.60;;;8.15;;
78834;SDS011;68187;42.682;23.352;2023-06-10T00:27:24;10.93;;;5.80;;
78834;SDS011;68187;42.682;23.352;2023-06-10T00:29:56;10.57;;;7.85;;
78834;SDS011;68187;42.682;23.352;2023-06-10T00:32:23;11.63;;;6.45;;
78834;SDS011;68187;42.682;23.352;2023-06-10T00:35:07;10.02;;;7.10;;
78834;SDS011;68187;42.682;23.352;2023-06-10T00:37:35;11.13;;;6.15;;
78834;SDS011;68187;42.682;23.352;2023-06-10T00:40:02;11.50;;;7.32;;
78834;SDS011;68187;42.682;23.352;2023-06-10T00:42:30;10.75;;;6.90;;
78834;SDS011;68187;42.682;23.352;2023-06-10T00:44:57;11.75;;;6.50;;
78834;SDS011;68187;42.682;23.352;2023-06-10T00:47:23;12.18;;;8.73;;
78834;SDS011;68187;42.682;23.352;2023-06-10T00:49:51;9.88;;;5.80;;
78834;SDS011;68187;42.682;23.352;2023-06-10T00:52:19;11.65;;;6.80;;
78834;SDS011;68187;42.682;23.352;2023-06-10T00:54:49;12.50;;;7.13;;
78834;SDS011;68187;42.682;23.352;2023-06-10T00:57:16;12.60;;;6.40;;
78834;SDS011;68187;42.682;23.352;2023-06-10T00:59:46;13.50;;;8.13;;
78834;SDS011;68187;42.682;23.352;2023-06-10T01:02:15;11.00;;;7.15;;
78834;SDS011;68187;42.682;23.352;2023-06-10T01:04:42;11.75;;;6.70;;
78834;SDS011;68187;42.682;23.352;2023-06-10T01:07:09;9.57;;;6.32;;
78834;SDS011;68187;42.682;23.352;2023-06-10T01:09:45;12.98;;;6.10;;
78834;SDS011;68187;42.682;23.352;2023-06-10T01:12:23;10.65;;;6.00;;
78834;SDS011;68187;42.682;23.352;2023-06-10T01:14:58;10.00;;;5.65;;
78834;SDS011;68187;42.682;23.352;2023-06-10T01:17:25;9.13;;;5.95;;
78834;SDS011;68187;42.682;23.352;2023-06-10T01:19:53;9.63;;;6.18;;
78834;SDS011;68187;42.682;23.352;2023-06-10T01:22:23;11.80;;;6.45;;
78834;SDS011;68187;42.682;23.352;2023-06-10T01:24:51;11.70;;;8.52;;
78834;SDS011;68187;42.682;23.352;2023-06-10T01:27:19;10.05;;;6.07;;
78834;SDS011;68187;42.682;23.352;2023-06-10T01:29:50;9.55;;;6.95;;
78834;SDS011;68187;42.682;23.352;2023-06-10T01:32:26;11.73;;;7.40;;
78834;SDS011;68187;42.682;23.352;2023-06-10T01:34:59;10.98;;;7.55;;
78834;SDS011;68187;42.682;23.352;2023-06-10T01:37:28;10.48;;;7.63;;
78834;SDS011;68187;42.682;23.352;2023-06-10T01:39:56;11.70;;;7.13;;
78834;SDS011;68187;42.682;23.352;2023-06-10T01:42:24;10.38;;;8.10;;
78834;SDS011;68187;42.682;23.352;2023-06-10T01:44:52;11.85;;;8.00;;
78834;SDS011;68187;42.682;23.352;2023-06-10T01:47:19;12.13;;;8.38;;
78834;SDS011;68187;42.682;23.352;2023-06-10T01:49:45;12.10;;;7.45;;
78834;SDS011;68187;42.682;23.352;2023-06-10T01:52:12;14.77;;;7.30;;
78834;SDS011;68187;42.682;23.352;2023-06-10T01:54:40;11.63;;;7.68;;
78834;SDS011;68187;42.682;23.352;2023-06-10T01:57:07;14.98;;;7.50;;
78834;SDS011;68187;42.682;23.352;2023-06-10T01:59:34;10.77;;;6.97;;
78834;SDS011;68187;42.682;23.352;2023-06-10T02:02:03;12.88;;;9.25;;
78834;SDS011;68187;42.682;23.352;2023-06-10T02:04:30;12.48;;;7.15;;
78834;SDS011;68187;42.682;23.352;2023-06-10T02:06:57;12.73;;;8.02;;
78834;SDS011;68187;42.682;23.352;2023-06-10T02:09:23;10.60;;;7.93;;
78834;SDS011;68187;42.682;23.352;2023-06-10T02:11:52;13.30;;;6.80;;
78834;SDS011;68187;42.682;23.352;2023-06-10T02:14:19;9.85;;;6.38;;
78834;SDS011;68187;42.682;23.352;2023-06-10T02:16:46;9.70;;;6.75;;
78834;SDS011;68187;42.682;23.352;2023-06-10T02:19:13;12.45;;;7.15;;
78834;SDS011;68187;42.682;23.352;2023-06-10T02:21:39;11.60;;;7.82;;
78834;SDS011;68187;42.682;23.352;2023-06-10T02:24:06;11.48;;;6.68;;
78834;SDS011;68187;42.682;23.352;2023-06-10T02:26:34;10.00;;;6.63;;
78834;SDS011;68187;42.682;23.352;2023-06-10T02:29:02;9.73;;;6.72;;
78834;SDS011;68187;42.682;23.352;2023-06-10T02:31:28;10.25;;;6.95;;
78834;SDS011;68187;42.682;23.352;2023-06-10T02:33:55;10.88;;;7.07;;
78834;SDS011;68187;42.682;23.352;2023-06-10T02:36:22;11.20;;;6.32;;
78834;SDS011;68187;42.682;23.352;2023-06-10T02:38:49;9.73;;;6.80;;
78834;SDS011;68187;42.682;23.352;2023-06-10T02:41:16;10.65;;;7.97;;
78834;SDS011;68187;42.682;23.352;2023-06-10T02:43:42;9.80;;;6.28;;
78834;SDS011;68187;42.682;23.352;2023-06-10T02:46:11;11.27;;;8.20;;
78834;SDS011;68187;42.682;23.352;2023-06-10T02:48:40;10.60;;;6.78;;
78834;SDS011;68187;42.682;23.352;2023-06-10T02:51:08;15.13;;;8.95;;
78834;SDS011;68187;42.682;23.352;2023-06-10T02:53:35;15.13;;;7.45;;
78834;SDS011;68187;42.682;23.352;2023-06-10T02:56:02;12.65;;;7.47;;
78834;SDS011;68187;42.682;23.352;2023-06-10T02:58:29;12.93;;;8.48;;
78834;SDS011;68187;42.682;23.352;2023-06-10T03:00:55;10.25;;;7.47;;
78834;SDS011;68187;42.682;23.352;2023-06-10T03:03:24;11.70;;;7.82;;
78834;SDS011;68187;42.682;23.352;2023-06-10T03:05:52;11.60;;;6.57;;
78834;SDS011;68187;42.682;23.352;2023-06-10T03:08:19;12.65;;;7.15;;
78834;SDS011;68187;42.682;23.352;2023-06-10T03:10:46;9.43;;;7.28;;
78834;SDS011;68187;42.682;23.352;2023-06-10T03:13:13;11.40;;;7.25;;
78834;SDS011;68187;42.682;23.352;2023-06-10T03:15:40;13.55;;;7.82;;
78834;SDS011;68187;42.682;23.352;2023-06-10T03:18:07;14.02;;;8.68;;
78834;SDS011;68187;42.682;23.352;2023-06-10T03:20:35;10.85;;;6.50;;
78834;SDS011;68187;42.682;23.352;2023-06-10T03:23:03;13.57;;;8.63;;
78834;SDS011;68187;42.682;23.352;2023-06-10T03:25:31;10.40;;;7.03;;
78834;SDS011;68187;42.682;23.352;2023-06-10T03:27:58;12.32;;;10.52;;
78834;SDS011;68187;42.682;23.352;2023-06-10T03:30:25;12.15;;;7.93;;
78834;SDS011;68187;42.682;23.352;2023-06-10T03:32:51;14.30;;;8.48;;
78834;SDS011;68187;42.682;23.352;2023-06-10T03:35:18;14.32;;;9.75;;
78834;SDS011;68187;42.682;23.352;2023-06-10T03:37:47;11.45;;;7.32;;
78834;SDS011;68187;42.682;23.352;2023-06-10T03:40:14;13.10;;;8.90;;
78834;SDS011;68187;42.682;23.352;2023-06-10T03:42:41;11.85;;;7.57;;
78834;SDS011;68187;42.682;23.352;2023-06-10T03:45:09;13.43;;;9.52;;
78834;SDS011;68187;42.682;23.352;2023-06-10T03:47:37;9.52;;;6.80;;
78834;SDS011;68187;42.682;23.352;2023-06-10T03:50:06;12.50;;;7.35;;
78834;SDS011;68187;42.682;23.352;2023-06-10T03:52:34;9.45;;;7.30;;
78834;SDS011;68187;42.682;23.352;2023-06-10T03:55:03;11.23;;;8.50;;
78834;SDS011;68187;42.682;23.352;2023-06-10T03:57:30;11.45;;;6.82;;
78834;SDS011;68187;42.682;23.352;2023-06-10T03:59:57;12.02;;;6.05;;
78834;SDS011;68187;42.682;23.352;2023-06-10T04:02:24;10.23;;;5.13;;
78834;SDS011;68187;42.682;23.352;2023-06-10T04:04:51;10.45;;;6.78;;
78834;SDS011;68187;42.682;23.352;2023-06-10T04:07:18;10.50;;;5.40;;
78834;SDS011;68187;42.682;23.352;2023-06-10T04:09:45;9.25;;;5.72;;
78834;SDS011;68187;42.682;23.352;2023-06-10T04:12:14;10.07;;;5.47;;
78834;SDS011;68187;42.682;23.352;2023-06-10T04:14:41;9.70;;;6.20;;
78834;SDS011;68187;42.682;23.352;2023-06-10T04:17:08;12.00;;;6.72;;
78834;SDS011;68187;42.682;23.352;2023-06-10T04:19:35;8.10;;;5.05;;
78834;SDS011;68187;42.682;23.352;2023-06-10T04:22:02;7.63;;;5.22;;
78834;SDS011;68187;42.682;23.352;2023-06-10T04:24:30;9.10;;;6.13;;
78834;SDS011;68187;42.682;23.352;2023-06-10T04:26:57;8.45;;;6.47;;
78834;SDS011;68187;42.682;23.352;2023-06-10T04:29:25;9.48;;;5.82;;
78834;SDS011;68187;42.682;23.352;2023-06-10T04:31:52;11.68;;;5.70;;
78834;SDS011;68187;42.682;23.352;2023-06-10T04:34:18;9.77;;;6.50;;
78834;SDS011;68187;42.682;23.352;2023-06-10T04:36:45;9.25;;;5.25;;
78834;SDS011;68187;42.682;23.352;2023-06-10T04:39:12;8.02;;;5.47;;
78834;SDS011;68187;42.682;23.352;2023-06-10T04:41:40;8.30;;;5.18;;
78834;SDS011;68187;42.682;23.352;2023-06-10T04:44:07;8.20;;;5.18;;
78834;SDS011;68187;42.682;23.352;2023-06-10T04:46:35;8.07;;;5.75;;
78834;SDS011;68187;42.682;23.352;2023-06-10T04:49:02;11.35;;;6.85;;
78834;SDS011;68187;42.682;23.352;2023-06-10T04:51:30;16.58;;;8.25;;
78834;SDS011;68187;42.682;23.352;2023-06-10T04:53:56;10.15;;;6.53;;
78834;SDS011;68187;42.682;23.352;2023-06-10T04:56:23;8.88;;;5.95;;
78834;SDS011;68187;42.682;23.352;2023-06-10T04:58:50;9.52;;;6.32;;
78834;SDS011;68187;42.682;23.352;2023-06-10T05:01:17;9.63;;;6.90;;
78834;SDS011;68187;42.682;23.352;2023-06-10T05:03:45;10.80;;;6.50;;
78834;SDS011;68187;42.682;23.352;2023-06-10T05:06:12;9.82;;;5.47;;
78834;SDS011;68187;42.682;23.352;2023-06-10T05:08:38;13.02;;;6.10;;
78834;SDS011;68187;42.682;23.352;2023-06-10T05:11:05;11.20;;;7.35;;
78834;SDS011;68187;42.682;23.352;2023-06-10T05:13:32;10.73;;;8.10;;
78834;SDS011;68187;42.682;23.352;2023-06-10T05:15:59;12.48;;;7.55;;
78834;SDS011;68187;42.682;23.352;2023-06-10T05:18:26;11.82;;;7.30;;
78834;SDS011;68187;42.682;23.352;2023-06-10T05:20:54;12.80;;;6.88;;
78834;SDS011;68187;42.682;23.352;2023-06-10T05:23:21;10.13;;;7.57;;
78834;SDS011;68187;42.682;23.352;2023-06-10T05:25:48;10.98;;;8.43;;
78834;SDS011;68187;42.682;23.352;2023-06-10T05:28:15;13.18;;;7.50;;
78834;SDS011;68187;42.682;23.352;2023-06-10T05:30:41;10.75;;;6.65;;
78834;SDS011;68187;42.682;23.352;2023-06-10T05:33:08;13.02;;;9.48;;
78834;SDS011;68187;42.682;23.352;2023-06-10T05:35:35;14.18;;;8.48;;
78834;SDS011;68187;42.682;23.352;2023-06-10T05:38:03;12.13;;;8.00;;
78834;SDS011;68187;42.682;23.352;2023-06-10T05:40:31;14.90;;;9.90;;
78834;SDS011;68187;42.682;23.352;2023-06-10T05:42:57;10.95;;;8.90;;
78834;SDS011;68187;42.682;23.352;2023-06-10T05:45:24;11.60;;;7.90;;
78834;SDS011;68187;42.682;23.352;2023-06-10T05:47:51;14.40;;;8.32;;
78834;SDS011;68187;42.682;23.352;2023-06-10T05:50:18;15.35;;;11.57;;
78834;SDS011;68187;42.682;23.352;2023-06-10T05:52:44;12.52;;;8.23;;
78834;SDS011;68187;42.682;23.352;2023-06-10T05:55:13;13.07;;;9.55;;
78834;SDS011;68187;42.682;23.352;2023-06-10T05:57:41;13.30;;;8.18;;
78834;SDS011;68187;42.682;23.352;2023-06-10T06:00:08;12.40;;;8.43;;
78834;SDS011;68187;42.682;23.352;2023-06-10T06:02:35;12.98;;;9.40;;
78834;SDS011;68187;42.682;23.352;2023-06-10T06:05:02;13.93;;;9.68;;
78834;SDS011;68187;42.682;23.352;2023-06-10T06:07:29;12.75;;;9.57;;
78834;SDS011;68187;42.682;23.352;2023-06-10T06:09:56;15.00;;;9.70;;
78834;SDS011;68187;42.682;23.352;2023-06-10T06:12:24;18.48;;;9.82;;
78834;SDS011;68187;42.682;23.352;2023-06-10T06:14:51;14.35;;;8.98;;
78834;SDS011;68187;42.682;23.352;2023-06-10T06:17:18;13.35;;;9.75;;
78834;SDS011;68187;42.682;23.352;2023-06-10T06:19:44;12.98;;;7.20;;
78834;SDS011;68187;42.682;23.352;2023-06-10T06:22:13;13.57;;;7.60;;
78834;SDS011;68187;42.682;23.352;2023-06-10T06:24:39;12.80;;;8.32;;
78834;SDS011;68187;42.682;23.352;2023-06-10T06:27:06;14.15;;;6.97;;
78834;SDS011;68187;42.682;23.352;2023-06-10T06:29:34;12.23;;;7.63;;
78834;SDS011;68187;42.682;23.352;2023-06-10T06:32:01;12.32;;;7.68;;
78834;SDS011;68187;42.682;23.352;2023-06-10T06:34:28;14.95;;;7.20;;
78834;SDS011;68187;42.682;23.352;2023-06-10T06:36:55;13.02;;;9.20;;
78834;SDS011;68187;42.682;23.352;2023-06-10T06:39:21;12.88;;;8.90;;
78834;SDS011;68187;42.682;23.352;2023-06-10T06:41:48;15.20;;;7.38;;
78834;SDS011;68187;42.682;23.352;2023-06-10T06:44:15;12.90;;;8.32;;
78834;SDS011;68187;42.682;23.352;2023-06-10T06:46:43;11.65;;;7.38;;
78834;SDS011;68187;42.682;23.352;2023-06-10T06:49:10;10.43;;;7.22;;
78834;SDS011;68187;42.682;23.352;2023-06-10T06:51:36;12.43;;;6.60;;
78834;SDS011;68187;42.682;23.352;2023-06-10T06:54:03;15.05;;;6.93;;
78834;SDS011;68187;42.682;23.352;2023-06-10T06:56:30;9.60;;;7.07;;
78834;SDS011;68187;42.682;23.352;2023-06-10T06:58:57;13.50;;;6.97;;
78834;SDS011;68187;42.682;23.352;2023-06-10T07:01:24;10.48;;;6.45;;
78834;SDS011;68187;42.682;23.352;2023-06-10T07:03:52;10.13;;;5.93;;
78834;SDS011;68187;42.682;23.352;2023-06-10T07:06:19;8.95;;;5.50;;
78834;SDS011;68187;42.682;23.352;2023-06-10T07:08:46;9.32;;;4.75;;
78834;SDS011;68187;42.682;23.352;2023-06-10T07:11:12;9.98;;;5.45;;
78834;SDS011;68187;42.682;23.352;2023-06-10T07:13:41;8.65;;;5.55;;
78834;SDS011;68187;42.682;23.352;2023-06-10T07:16:07;9.02;;;4.53;;
78834;SDS011;68187;42.682;23.352;2023-06-10T07:18:34;8.85;;;6.10;;
78834;SDS011;68187;42.682;23.352;2023-06-10T07:21:02;7.95;;;5.57;;
78834;SDS011;68187;42.682;23.352;2023-06-10T07:23:29;8.70;;;4.97;;
78834;SDS011;68187;42.682;23.352;2023-06-10T07:25:56;11.18;;;6.90;;
78834;SDS011;68187;42.682;23.352;2023-06-10T07:28:23;10.57;;;5.07;;
78834;SDS011;68187;42.682;23.352;2023-06-10T07:30:49;8.05;;;5.90;;
78834;SDS011;68187;42.682;23.352;2023-06-10T07:33:16;7.25;;;4.90;;
78834;SDS011;68187;42.682;23.352;2023-06-10T07:35:43;8.40;;;4.78;;
78834;SDS011;68187;42.682;23.352;2023-06-10T07:38:11;11.95;;;4.88;;
78834;SDS011;68187;42.682;23.352;2023-06-10T07:40:38;10.10;;;6.03;;
78834;SDS011;68187;42.682;23.352;2023-06-10T07:43:04;10.30;;;5.68;;
78834;SDS011;68187;42.682;23.352;2023-06-10T07:45:31;8.90;;;4.07;;
78834;SDS011;68187;42.682;23.352;2023-06-10T07:47:58;7.85;;;4.93;;
78834;SDS011;68187;42.682;23.352;2023-06-10T07:50:25;11.07;;;3.50;;
78834;SDS011;68187;42.682;23.352;2023-06-10T07:52:51;7.80;;;3.97;;
78834;SDS011;68187;42.682;23.352;2023-06-10T07:55:20;6.97;;;3.88;;
78834;SDS011;68187;42.682;23.352;2023-06-10T07:57:46;6.28;;;3.70;;
78834;SDS011;68187;42.682;23.352;2023-06-10T08:00:13;6.20;;;2.33;;
78834;SDS011;68187;42.682;23.352;2023-06-10T08:02:40;8.25;;;4.07;;
78834;SDS011;68187;42.682;23.352;2023-06-10T08:05:07;7.15;;;3.13;;
78834;SDS011;68187;42.682;23.352;2023-06-10T08:07:35;6.80;;;2.50;;
78834;SDS011;68187;42.682;23.352;2023-06-10T08:10:01;6.45;;;3.13;;
78834;SDS011;68187;42.682;23.352;2023-06-10T08:12:31;5.60;;;2.95;;
78834;SDS011;68187;42.682;23.352;2023-06-10T08:14:58;6.53;;;3.10;;
78834;SDS011;68187;42.682;23.352;2023-06-10T08:17:25;6.65;;;3.35;;
78834;SDS011;68187;42.682;23.352;2023-06-10T08:19:52;6.13;;;3.17;;
78834;SDS011;68187;42.682;23.352;2023-06-10T08:22:19;7.75;;;3.35;;
78834;SDS011;68187;42.682;23.352;2023-06-10T08:24:46;6.43;;;2.78;;
78834;SDS011;68187;42.682;23.352;2023-06-10T08:27:13;10.52;;;4.22;;
78834;SDS011;68187;42.682;23.352;2023-06-10T08:29:41;8.15;;;4.13;;
78834;SDS011;68187;42.682;23.352;2023-06-10T08:32:08;6.43;;;3.85;;
78834;SDS011;68187;42.682;23.352;2023-06-10T08:34:35;7.32;;;3.60;;
78834;SDS011;68187;42.682;23.352;2023-06-10T08:37:02;6.82;;;4.15;;
78834;SDS011;68187;42.682;23.352;2023-06-10T08:39:29;6.43;;;3.08;;
78834;SDS011;68187;42.682;23.352;2023-06-10T08:42:00;7.80;;;3.05;;
78834;SDS011;68187;42.682;23.352;2023-06-10T08:44:34;8.25;;;3.92;;
78834;SDS011;68187;42.682;23.352;2023-06-10T08:47:06;6.78;;;3.13;;
78834;SDS011;68187;42.682;23.352;2023-06-10T08:49:41;5.65;;;2.80;;
78834;SDS011;68187;42.682;23.352;2023-06-10T08:52:11;5.80;;;2.63;;
78834;SDS011;68187;42.682;23.352;2023-06-10T08:54:42;5.22;;;3.30;;
78834;SDS011;68187;42.682;23.352;2023-06-10T08:57:10;4.90;;;2.53;;
78834;SDS011;68187;42.682;23.352;2023-06-10T08:59:37;6.30;;;2.72;;
78834;SDS011;68187;42.682;23.352;2023-06-10T09:02:06;8.80;;;2.60;;
78834;SDS011;68187;42.682;23.352;2023-06-10T09:04:34;5.40;;;2.58;;
78834;SDS011;68187;42.682;23.352;2023-06-10T09:07:02;5.53;;;2.70;;
78834;SDS011;68187;42.682;23.352;2023-06-10T09:09:30;4.65;;;2.28;;
78834;SDS011;68187;42.682;23.352;2023-06-10T09:11:58;4.85;;;2.13;;
78834;SDS011;68187;42.682;23.352;2023-06-10T09:14:25;6.93;;;3.33;;
78834;SDS011;68187;42.682;23.352;2023-06-10T09:16:52;6.15;;;2.55;;
78834;SDS011;68187;42.682;23.352;2023-06-10T09:19:23;4.90;;;2.53;;
78834;SDS011;68187;42.682;23.352;2023-06-10T09:21:51;6.13;;;3.45;;
78834;SDS011;68187;42.682;23.352;2023-06-10T09:24:18;5.57;;;2.13;;
78834;SDS011;68187;42.682;23.352;2023-06-10T09:26:44;8.93;;;3.95;;
78834;SDS011;68187;42.682;23.352;2023-06-10T09:29:11;6.88;;;2.22;;
78834;SDS011;68187;42.682;23.352;2023-06-10T09:31:38;4.30;;;2.20;;
78834;SDS011;68187;42.682;23.352;2023-06-10T09:34:06;5.07;;;1.70;;
78834;SDS011;68187;42.682;23.352;2023-06-10T09:36:37;5.05;;;2.80;;
78834;SDS011;68187;42.682;23.352;2023-06-10T09:39:04;7.53;;;3.05;;
78834;SDS011;68187;42.682;23.352;2023-06-10T09:41:39;7.72;;;1.88;;
78834;SDS011;68187;42.682;23.352;2023-06-10T09:44:09;6.55;;;3.10;;
78834;SDS011;68187;42.682;23.352;2023-06-10T09:46:39;6.82;;;2.50;;
78834;SDS011;68187;42.682;23.352;2023-06-10T09:49:06;5.40;;;2.28;;
78834;SDS011;68187;42.682;23.352;2023-06-10T09:51:33;6.22;;;2.85;;
78834;SDS011;68187;42.682;23.352;2023-06-10T09:54:03;6.50;;;3.00;;
78834;SDS011;68187;42.682;23.352;2023-06-10T09:56:33;5.40;;;2.75;;
78834;SDS011;68187;42.682;23.352;2023-06-10T09:59:01;5.80;;;3.85;;
78834;SDS011;68187;42.682;23.352;2023-06-10T10:01:30;6.57;;;2.75;;
78834;SDS011;68187;42.682;23.352;2023-06-10T10:03:58;5.65;;;3.25;;
78834;SDS011;68187;42.682;23.352;2023-06-10T10:06:25;5.15;;;2.38;;
78834;SDS011;68187;42.682;23.352;2023-06-10T10:08:53;6.63;;;2.90;;
78834;SDS011;68187;42.682;23.352;2023-06-10T10:11:22;6.25;;;2.75;;
78834;SDS011;68187;42.682;23.352;2023-06-10T10:13:51;5.15;;;2.67;;
78834;SDS011;68187;42.682;23.352;2023-06-10T10:16:19;6.45;;;3.13;;
78834;SDS011;68187;42.682;23.352;2023-06-10T10:18:49;6.57;;;3.33;;
78834;SDS011;68187;42.682;23.352;2023-06-10T10:21:21;6.20;;;2.83;;
78834;SDS011;68187;42.682;23.352;2023-06-10T10:23:53;5.63;;;2.58;;
78834;SDS011;68187;42.682;23.352;2023-06-10T10:26:26;7.45;;;2.53;;
78834;SDS011;68187;42.682;23.352;2023-06-10T10:28:56;6.05;;;2.40;;
78834;SDS011;68187;42.682;23.352;2023-06-10T10:31:32;8.10;;;2.97;;
78834;SDS011;68187;42.682;23.352;2023-06-10T10:34:02;5.40;;;3.05;;
78834;SDS011;68187;42.682;23.352;2023-06-10T10:36:32;5.07;;;2.47;;
78834;SDS011;68187;42.682;23.352;2023-06-10T10:38:59;7.38;;;3.40;;
78834;SDS011;68187;42.682;23.352;2023-06-10T10:41:29;5.40;;;3.55;;
78834;SDS011;68187;42.682;23.352;2023-06-10T10:43:57;6.90;;;3.47;;
78834;SDS011;68187;42.682;23.352;2023-06-10T10:46:25;5.43;;;2.92;;
78834;SDS011;68187;42.682;23.352;2023-06-10T10:48:52;6.70;;;2.53;;
78834;SDS011;68187;42.682;23.352;2023-06-10T10:51:20;5.85;;;2.45;;
78834;SDS011;68187;42.682;23.352;2023-06-10T10:56:38;6.65;;;3.15;;
78834;SDS011;68187;42.682;23.352;2023-06-10T10:59:06;6.85;;;2.42;;
78834;SDS011;68187;42.682;23.352;2023-06-10T11:01:40;5.88;;;2.75;;
78834;SDS011;68187;42.682;23.352;2023-06-10T11:04:11;6.18;;;3.80;;
78834;SDS011;68187;42.682;23.352;2023-06-10T11:06:38;7.70;;;2.65;;
78834;SDS011;68187;42.682;23.352;2023-06-10T11:11:54;5.10;;;3.13;;
78834;SDS011;68187;42.682;23.352;2023-06-10T11:14:26;5.22;;;2.45;;
78834;SDS011;68187;42.682;23.352;2023-06-10T11:16:53;6.07;;;3.25;;
78834;SDS011;68187;42.682;23.352;2023-06-10T11:19:32;7.28;;;2.38;;
78834;SDS011;68187;42.682;23.352;2023-06-10T11:22:01;6.53;;;4.00;;
78834;SDS011;68187;42.682;23.352;2023-06-10T11:24:29;5.00;;;2.58;;
78834;SDS011;68187;42.682;23.352;2023-06-10T11:29:58;5.05;;;2.67;;
78834;SDS011;68187;42.682;23.352;2023-06-10T11:32:44;5.65;;;3.15;;
78834;SDS011;68187;42.682;23.352;2023-06-10T11:35:16;7.97;;;3.70;;
78834;SDS011;68187;42.682;23.352;2023-06-10T11:37:46;7.57;;;3.60;;
78834;SDS011;68187;42.682;23.352;2023-06-10T11:40:13;6.95;;;3.42;;
78834;SDS011;68187;42.682;23.352;2023-06-10T11:42:41;7.90;;;3.88;;
78834;SDS011;68187;42.682;23.352;2023-06-10T11:45:09;6.97;;;3.72;;
78834;SDS011;68187;42.682;23.352;2023-06-10T11:47:36;7.60;;;3.25;;
78834;SDS011;68187;42.682;23.352;2023-06-10T11:50:03;6.35;;;2.72;;
78834;SDS011;68187;42.682;23.352;2023-06-10T11:52:30;6.25;;;2.45;;
78834;SDS011;68187;42.682;23.352;2023-06-10T11:54:58;7.20;;;3.55;;
78834;SDS011;68187;42.682;23.352;2023-06-10T11:57:25;6.13;;;3.20;;
78834;SDS011;68187;42.682;23.352;2023-06-10T11:59:53;5.50;;;2.53;;
78834;SDS011;68187;42.682;23.352;2023-06-10T12:02:20;5.07;;;2.45;;
78834;SDS011;68187;42.682;23.352;2023-06-10T12:04:47;5.28;;;2.50;;
78834;SDS011;68187;42.682;23.352;2023-06-10T12:07:17;6.32;;;2.63;;
78834;SDS011;68187;42.682;23.352;2023-06-10T12:09:46;4.53;;;1.90;;
78834;SDS011;68187;42.682;23.352;2023-06-10T12:12:13;6.50;;;2.33;;
78834;SDS011;68187;42.682;23.352;2023-06-10T12:14:54;4.15;;;2.03;;
78834;SDS011;68187;42.682;23.352;2023-06-10T12:17:23;5.55;;;2.42;;
78834;SDS011;68187;42.682;23.352;2023-06-10T12:20:02;4.28;;;1.85;;
78834;SDS011;68187;42.682;23.352;2023-06-10T12:22:35;5.05;;;2.45;;
78834;SDS011;68187;42.682;23.352;2023-06-10T12:25:03;6.25;;;2.67;;
78834;SDS011;68187;42.682;23.352;2023-06-10T12:27:32;7.90;;;3.15;;
78834;SDS011;68187;42.682;23.352;2023-06-10T12:30:01;6.43;;;2.80;;
78834;SDS011;68187;42.682;23.352;2023-06-10T12:32:39;7.65;;;3.33;;
78834;SDS011;68187;42.682;23.352;2023-06-10T12:35:08;4.95;;;1.92;;
78834;SDS011;68187;42.682;23.352;2023-06-10T12:37:35;5.43;;;2.05;;
78834;SDS011;68187;42.682;23.352;2023-06-10T12:40:04;6.60;;;2.22;;
78834;SDS011;68187;42.682;23.352;2023-06-10T12:42:33;5.78;;;2.00;;
78834;SDS011;68187;42.682;23.352;2023-06-10T12:45:03;7.35;;;2.25;;
78834;SDS011;68187;42.682;23.352;2023-06-10T12:47:33;5.32;;;2.47;;
78834;SDS011;68187;42.682;23.352;2023-06-10T12:50:01;4.85;;;1.67;;
78834;SDS011;68187;42.682;23.352;2023-06-10T12:52:29;4.97;;;2.15;;
78834;SDS011;68187;42.682;23.352;2023-06-10T12:54:56;4.88;;;1.90;;
78834;SDS011;68187;42.682;23.352;2023-06-10T12:57:23;5.05;;;2.40;;
78834;SDS011;68187;42.682;23.352;2023-06-10T12:59:50;5.13;;;2.05;;
78834;SDS011;68187;42.682;23.352;2023-06-10T13:02:19;4.75;;;2.38;;
78834;SDS011;68187;42.682;23.352;2023-06-10T13:04:48;4.57;;;1.90;;
78834;SDS011;68187;42.682;23.352;2023-06-10T13:07:16;6.55;;;2.45;;
78834;SDS011;68187;42.682;23.352;2023-06-10T13:09:43;4.95;;;1.60;;
78834;SDS011;68187;42.682;23.352;2023-06-10T13:12:10;6.07;;;1.85;;
78834;SDS011;68187;42.682;23.352;2023-06-10T13:14:37;6.40;;;3.10;;
78834;SDS011;68187;42.682;23.352;2023-06-10T13:17:04;5.78;;;2.38;;
78834;SDS011;68187;42.682;23.352;2023-06-10T13:19:33;5.00;;;1.58;;
78834;SDS011;68187;42.682;23.352;2023-06-10T13:22:00;7.43;;;1.83;;
78834;SDS011;68187;42.682;23.352;2023-06-10T13:24:27;5.85;;;2.30;;
78834;SDS011;68187;42.682;23.352;2023-06-10T13:26:53;5.68;;;2.35;;
78834;SDS011;68187;42.682;23.352;2023-06-10T13:29:21;5.93;;;2.38;;
78834;SDS011;68187;42.682;23.352;2023-06-10T13:31:48;6.32;;;3.80;;
78834;SDS011;68187;42.682;23.352;2023-06-10T13:34:15;6.65;;;2.72;;
78834;SDS011;68187;42.682;23.352;2023-06-10T13:36:43;7.47;;;4.50;;
78834;SDS011;68187;42.682;23.352;2023-06-10T13:39:10;5.20;;;2.60;;
78834;SDS011;68187;42.682;23.352;2023-06-10T13:41:38;5.97;;;3.47;;
78834;SDS011;68187;42.682;23.352;2023-06-10T13:44:06;7.00;;;3.17;;
78834;SDS011;68187;42.682;23.352;2023-06-10T13:46:33;8.23;;;3.15;;
78834;SDS011;68187;42.682;23.352;2023-06-10T13:49:00;5.70;;;3.50;;
78834;SDS011;68187;42.682;23.352;2023-06-10T13:51:27;7.15;;;2.97;;
78834;SDS011;68187;42.682;23.352;2023-06-10T13:53:55;5.80;;;3.95;;
78834;SDS011;68187;42.682;23.352;2023-06-10T13:56:22;7.82;;;4.13;;
78834;SDS011;68187;42.682;23.352;2023-06-10T13:58:49;7.00;;;4.03;;
78834;SDS011;68187;42.682;23.352;2023-06-10T14:01:15;7.15;;;4.47;;
78834;SDS011;68187;42.682;23.352;2023-06-10T14:03:42;7.10;;;3.25;;
78834;SDS011;68187;42.682;23.352;2023-06-10T14:06:09;6.75;;;3.75;;
78834;SDS011;68187;42.682;23.352;2023-06-10T14:08:38;5.55;;;2.78;;
78834;SDS011;68187;42.682;23.352;2023-06-10T14:11:06;7.75;;;3.97;;
78834;SDS011;68187;42.682;23.352;2023-06-10T14:13:33;6.38;;;4.20;;
78834;SDS011;68187;42.682;23.352;2023-06-10T14:16:00;6.55;;;3.90;;
78834;SDS011;68187;42.682;23.352;2023-06-10T14:18:28;6.97;;;3.35;;
78834;SDS011;68187;42.682;23.352;2023-06-10T14:20:54;8.38;;;3.42;;
78834;SDS011;68187;42.682;23.352;2023-06-10T14:23:21;6.95;;;4.53;;
78834;SDS011;68187;42.682;23.352;2023-06-10T14:25:49;8.93;;;3.70;;
78834;SDS011;68187;42.682;23.352;2023-06-10T14:28:17;6.40;;;3.78;;
78834;SDS011;68187;42.682;23.352;2023-06-10T14:30:44;6.22;;;3.72;;
78834;SDS011;68187;42.682;23.352;2023-06-10T14:33:11;6.50;;;2.75;;
78834;SDS011;68187;42.682;23.352;2023-06-10T14:35:38;7.70;;;4.57;;
78834;SDS011;68187;42.682;23.352;2023-06-10T14:38:04;9.68;;;3.08;;
78834;SDS011;68187;42.682;23.352;2023-06-10T14:40:31;7.30;;;3.50;;